createdAt,value
2022-11-09T00:04:13.565Z,18.40
2022-11-09T00:06:42.747Z,17.70
2022-11-09T00:09:11.334Z,18.00
2022-11-09T00:11:40.370Z,18.10
2022-11-09T00:14:15.567Z,19.00
2022-11-09T00:16:44.728Z,18.50
2022-11-09T00:19:14.409Z,19.90
2022-11-09T00:21:43.111Z,19.10
2022-11-09T00:24:12.378Z,21.10
2022-11-09T00:26:40.957Z,18.90
2022-11-09T00:29:10.140Z,19.80
2022-11-09T00:31:39.034Z,20.70
2022-11-09T00:36:38.343Z,20.90
2022-11-09T00:39:09.360Z,20.80
2022-11-09T00:41:37.934Z,19.80
2022-11-09T00:44:07.279Z,19.80
2022-11-09T00:46:36.813Z,20.10
2022-11-09T00:49:05.743Z,18.40
2022-11-09T00:51:34.428Z,20.40
2022-11-09T00:54:03.707Z,20.50
2022-11-09T00:56:32.314Z,20.00
2022-11-09T00:59:01.348Z,20.20
2022-11-09T01:01:30.608Z,20.00
2022-11-09T01:03:59.226Z,19.60
2022-11-09T01:06:28.001Z,17.90
2022-11-09T01:08:58.365Z,18.20
2022-11-09T01:11:26.930Z,19.70
2022-11-09T01:13:56.672Z,20.50
2022-11-09T01:16:26.111Z,20.40
2022-11-09T01:18:56.557Z,20.80
2022-11-09T01:21:27.910Z,19.80
2022-11-09T01:23:58.711Z,19.80
2022-11-09T01:26:29.786Z,19.50
2022-11-09T01:28:59.172Z,20.10
2022-11-09T01:31:27.934Z,21.90
2022-11-09T01:33:57.036Z,21.30
2022-11-09T01:36:26.691Z,21.50
2022-11-09T01:38:55.345Z,21.90
2022-11-09T01:41:28.987Z,20.90
2022-11-09T01:44:11.477Z,22.10
2022-11-09T01:46:52.497Z,21.90
2022-11-09T01:49:32.425Z,21.20
2022-11-09T01:52:29.473Z,22.50
2022-11-09T01:55:03.810Z,22.80
2022-11-09T01:57:39.133Z,24.20
2022-11-09T02:00:12.010Z,22.40
2022-11-09T02:02:52.996Z,21.80
2022-11-09T02:05:26.813Z,22.80
2022-11-09T02:07:58.351Z,22.00
2022-11-09T02:10:44.092Z,22.50
2022-11-09T02:13:16.305Z,22.30
2022-11-09T02:15:46.147Z,24.10
2022-11-09T02:18:15.287Z,24.40
2022-11-09T02:20:48.433Z,23.50
2022-11-09T02:23:17.841Z,22.20
2022-11-09T02:26:10.181Z,22.80
2022-11-09T02:28:40.939Z,22.20
2022-11-09T02:34:05.410Z,21.90
2022-11-09T02:36:35.287Z,23.40
2022-11-09T02:39:05.392Z,22.60
2022-11-09T02:44:06.434Z,23.00
2022-11-09T02:46:37.510Z,22.10
2022-11-09T02:49:06.745Z,22.00
2022-11-09T02:51:38.619Z,22.90
2022-11-09T02:54:07.376Z,25.00
2022-11-09T02:56:37.107Z,25.90
2022-11-09T03:01:35.465Z,24.60
2022-11-09T03:04:04.391Z,23.90
2022-11-09T03:06:37.115Z,24.50
2022-11-09T03:09:13.437Z,23.70
2022-11-09T03:11:43.513Z,22.60
2022-11-09T03:14:13.328Z,23.40
2022-11-09T03:16:50.422Z,25.20
2022-11-09T03:19:19.259Z,25.50
2022-11-09T03:21:50.025Z,22.90
2022-11-09T03:24:22.813Z,23.90
2022-11-09T03:26:52.934Z,16.80
2022-11-09T03:29:21.819Z,21.40
2022-11-09T03:31:50.435Z,23.60
2022-11-09T03:34:20.200Z,25.60
2022-11-09T03:36:48.879Z,18.00
2022-11-09T03:39:18.293Z,22.70
2022-11-09T03:41:47.659Z,23.10
2022-11-09T03:44:16.796Z,23.00
2022-11-09T03:46:45.335Z,23.60
2022-11-09T03:49:15.078Z,26.00
2022-11-09T03:51:43.676Z,26.00
2022-11-09T03:54:12.404Z,25.40
2022-11-09T03:56:41.844Z,23.50
2022-11-09T03:59:10.490Z,23.70
2022-11-09T04:01:39.136Z,21.60
2022-11-09T04:04:08.067Z,23.40
2022-11-09T04:06:36.794Z,23.90
2022-11-09T04:09:05.882Z,25.30
2022-11-09T04:11:35.404Z,27.40
2022-11-09T04:14:03.930Z,25.50
2022-11-09T04:16:33.520Z,23.70
2022-11-09T04:19:02.676Z,25.90
2022-11-09T04:21:31.313Z,28.80
2022-11-09T04:24:00.037Z,28.80
2022-11-09T04:26:29.672Z,28.10
2022-11-09T04:28:58.264Z,25.70
2022-11-09T04:31:28.176Z,25.70
2022-11-09T04:33:57.875Z,24.70
2022-11-09T04:36:26.457Z,24.50
2022-11-09T04:38:54.942Z,24.20
2022-11-09T04:41:24.443Z,23.70
2022-11-09T04:43:53.035Z,25.20
2022-11-09T04:46:21.560Z,24.90
2022-11-09T04:48:50.634Z,25.60
2022-11-09T04:51:19.254Z,26.20
2022-11-09T04:53:47.852Z,25.50
2022-11-09T04:56:17.789Z,17.30
2022-11-09T04:58:46.693Z,25.80
2022-11-09T05:01:15.871Z,23.90
2022-11-09T05:03:45.385Z,24.30
2022-11-09T05:06:32.803Z,24.00
2022-11-09T05:09:05.711Z,25.60
2022-11-09T05:11:36.199Z,26.50
2022-11-09T05:14:05.384Z,28.50
2022-11-09T05:16:34.422Z,23.60
2022-11-09T05:19:02.993Z,23.70
2022-11-09T05:21:32.189Z,23.60
2022-11-09T05:24:01.351Z,23.50
2022-11-09T05:26:35.628Z,25.70
2022-11-09T05:29:07.901Z,26.20
2022-11-09T05:31:37.948Z,25.10
2022-11-09T05:34:07.960Z,25.60
2022-11-09T05:36:36.684Z,23.00
2022-11-09T05:39:05.355Z,22.40
2022-11-09T05:41:35.428Z,22.90
2022-11-09T05:44:04.337Z,23.60
2022-11-09T05:46:34.508Z,24.70
2022-11-09T05:51:32.527Z,23.50
2022-11-09T05:54:01.396Z,22.40
2022-11-09T05:56:30.225Z,21.70
2022-11-09T05:58:58.985Z,23.80
2022-11-09T06:01:27.623Z,23.10
2022-11-09T06:03:56.522Z,24.40
2022-11-09T06:06:25.319Z,24.60
2022-11-09T06:08:54.938Z,24.20
2022-11-09T06:11:24.613Z,24.00
2022-11-09T06:13:53.938Z,21.70
2022-11-09T06:16:22.833Z,23.50
2022-11-09T06:18:51.939Z,22.40
2022-11-09T06:21:20.539Z,24.10
2022-11-09T06:23:49.626Z,24.10
2022-11-09T06:26:19.080Z,24.40
2022-11-09T06:28:48.003Z,24.20
2022-11-09T06:31:18.082Z,22.50
2022-11-09T06:33:47.288Z,22.50
2022-11-09T06:36:16.197Z,23.20
2022-11-09T06:38:44.804Z,21.40
2022-11-09T06:41:13.518Z,23.00
2022-11-09T06:43:42.947Z,25.40
2022-11-09T06:46:12.110Z,24.70
2022-11-09T06:48:40.886Z,24.90
2022-11-09T06:51:12.728Z,25.40
2022-11-09T06:53:41.880Z,24.60
2022-11-09T06:56:11.724Z,23.20
2022-11-09T06:58:40.365Z,23.50
2022-11-09T07:01:17.115Z,25.50
2022-11-09T07:03:46.286Z,24.80
2022-11-09T07:06:14.938Z,27.60
2022-11-09T07:08:43.817Z,26.00
2022-11-09T07:11:16.746Z,26.50
2022-11-09T07:13:45.704Z,24.60
2022-11-09T07:16:18.201Z,23.70
2022-11-09T07:18:46.970Z,23.10
2022-11-09T07:21:15.725Z,24.40
2022-11-09T07:23:44.983Z,23.20
2022-11-09T07:26:13.906Z,24.90
2022-11-09T07:28:43.427Z,24.80
2022-11-09T07:31:12.764Z,24.50
2022-11-09T07:33:41.321Z,23.90
2022-11-09T07:36:10.178Z,24.30
2022-11-09T07:38:39.327Z,24.20
2022-11-09T07:41:08.215Z,24.60
2022-11-09T07:43:37.343Z,23.50
2022-11-09T07:46:06.556Z,25.40
2022-11-09T07:48:35.118Z,26.00
2022-11-09T07:51:03.905Z,23.90
2022-11-09T07:53:33.065Z,24.10
2022-11-09T07:56:03.897Z,23.20
2022-11-09T07:58:33.174Z,21.30
2022-11-09T08:01:02.712Z,23.20
2022-11-09T08:03:31.348Z,23.20
2022-11-09T08:06:00.255Z,22.60
2022-11-09T08:08:29.168Z,22.20
2022-11-09T08:10:58.857Z,24.00
2022-11-09T08:13:27.674Z,21.90
2022-11-09T08:15:56.630Z,23.50
2022-11-09T08:18:25.494Z,22.30
2022-11-09T08:20:54.121Z,23.40
2022-11-09T08:23:23.596Z,22.80
2022-11-09T08:25:52.594Z,22.40
2022-11-09T08:28:22.205Z,23.50
2022-11-09T08:31:03.499Z,22.00
2022-11-09T08:33:37.374Z,23.30
2022-11-09T08:36:14.828Z,22.40
2022-11-09T08:38:47.134Z,22.90
2022-11-09T08:41:15.912Z,22.10
2022-11-09T08:43:45.352Z,22.30
2022-11-09T08:46:17.450Z,23.80
2022-11-09T08:48:46.721Z,22.30
2022-11-09T08:51:15.386Z,21.70
2022-11-09T08:54:10.263Z,22.00
2022-11-09T08:56:50.313Z,22.50
2022-11-09T08:59:35.210Z,22.10
2022-11-09T09:02:30.763Z,22.50
2022-11-09T09:04:59.811Z,20.00
2022-11-09T09:07:28.499Z,20.80
2022-11-09T09:09:57.643Z,21.10
2022-11-09T09:12:26.305Z,22.30
2022-11-09T09:14:55.611Z,21.80
2022-11-09T09:17:24.580Z,21.20
2022-11-09T09:19:53.392Z,22.90
2022-11-09T09:22:22.263Z,22.80
2022-11-09T09:24:51.300Z,24.00
2022-11-09T09:27:20.725Z,23.30
2022-11-09T09:29:49.872Z,23.00
2022-11-09T09:32:18.610Z,22.20
2022-11-09T09:34:47.669Z,21.80
2022-11-09T09:37:17.814Z,20.90
2022-11-09T09:39:46.556Z,22.50
2022-11-09T09:42:23.434Z,22.30
2022-11-09T09:45:16.580Z,22.00
2022-11-09T09:48:06.088Z,21.70
2022-11-09T09:50:47.475Z,23.20
2022-11-09T09:53:43.348Z,21.80
2022-11-09T09:56:19.826Z,24.20
2022-11-09T09:59:00.528Z,21.80
2022-11-09T10:01:44.255Z,24.90
2022-11-09T10:04:22.952Z,22.40
2022-11-09T10:07:32.996Z,23.10
2022-11-09T10:10:20.740Z,23.00
2022-11-09T10:13:13.491Z,22.80
2022-11-09T10:15:54.244Z,23.30
2022-11-09T10:18:41.984Z,24.00
2022-11-09T10:21:29.157Z,24.90
2022-11-09T10:24:16.755Z,24.10
2022-11-09T10:26:49.141Z,24.00
2022-11-09T10:29:27.011Z,23.50
2022-11-09T10:32:01.914Z,23.50
2022-11-09T10:34:36.364Z,24.30
2022-11-09T10:37:20.769Z,24.30
2022-11-09T10:39:53.435Z,25.40
2022-11-09T10:42:45.790Z,26.20
2022-11-09T10:45:38.631Z,25.10
2022-11-09T10:48:40.366Z,25.00
2022-11-09T10:51:35.927Z,24.80
2022-11-09T10:54:27.970Z,24.70
2022-11-09T10:57:21.963Z,23.20
2022-11-09T11:00:20.793Z,23.50
2022-11-09T11:03:16.935Z,25.50
2022-11-09T11:06:15.091Z,26.80
2022-11-09T11:09:05.589Z,24.50
2022-11-09T11:12:16.680Z,22.50
2022-11-09T11:15:04.316Z,22.70
2022-11-09T11:18:02.571Z,24.30
2022-11-09T11:21:07.790Z,25.00
2022-11-09T11:24:10.910Z,24.40
2022-11-09T11:27:10.892Z,24.60
2022-11-09T11:30:07.455Z,23.60
2022-11-09T11:32:59.064Z,25.00
2022-11-09T11:36:08.401Z,25.60
2022-11-09T11:39:17.274Z,25.00
2022-11-09T11:42:43.703Z,25.80
2022-11-09T11:45:42.347Z,24.60
2022-11-09T11:49:08.744Z,28.50
2022-11-09T11:52:23.741Z,28.00
2022-11-09T11:55:30.839Z,26.30
2022-11-09T11:58:53.744Z,27.20
2022-11-09T12:01:56.302Z,25.40
2022-11-09T12:05:08.306Z,24.70
2022-11-09T12:08:37.969Z,25.80
2022-11-09T12:11:31.748Z,26.70
2022-11-09T12:14:33.328Z,28.80
2022-11-09T12:17:40.607Z,23.20
2022-11-09T12:20:42.432Z,25.20
2022-11-09T12:23:51.350Z,28.60
2022-11-09T12:27:43.592Z,32.30
2022-11-09T12:30:43.230Z,29.90
2022-11-09T12:33:48.636Z,30.30
2022-11-09T12:36:45.201Z,31.60
2022-11-09T12:39:38.558Z,33.00
2022-11-09T12:42:34.645Z,31.70
2022-11-09T12:45:30.973Z,30.70
2022-11-09T12:48:31.360Z,27.40
2022-11-09T12:51:20.949Z,27.80
2022-11-09T12:54:12.062Z,32.50
2022-11-09T12:57:13.629Z,29.20
2022-11-09T13:00:01.636Z,32.90
2022-11-09T13:03:02.389Z,33.50
2022-11-09T13:06:28.558Z,34.50
2022-11-09T13:09:15.814Z,31.20
2022-11-09T13:12:36.220Z,32.40
2022-11-09T13:15:29.986Z,33.80
2022-11-09T13:18:48.131Z,35.50
2022-11-09T13:21:37.470Z,35.20
2022-11-09T13:24:30.618Z,37.00
2022-11-09T13:27:33.510Z,38.20
2022-11-09T13:30:25.619Z,29.70
2022-11-09T13:33:22.752Z,29.40
2022-11-09T13:36:10.906Z,31.50
2022-11-09T13:39:33.334Z,37.80
2022-11-09T13:42:33.242Z,32.40
2022-11-09T13:45:30.704Z,32.80
2022-11-09T13:48:39.937Z,47.90
2022-11-09T13:51:36.711Z,32.50
2022-11-09T13:54:35.603Z,31.30
2022-11-09T13:57:26.092Z,28.50
2022-11-09T14:00:23.620Z,38.40
2022-11-09T14:03:24.645Z,30.20
2022-11-09T14:06:14.018Z,28.90
2022-11-09T14:09:02.468Z,30.50
2022-11-09T14:12:09.201Z,30.60
2022-11-09T14:14:57.180Z,36.30
2022-11-09T14:17:50.110Z,36.50
2022-11-09T14:20:41.576Z,34.30
2022-11-09T14:23:31.549Z,33.70
2022-11-09T14:26:22.509Z,37.40
2022-11-09T14:29:24.571Z,39.90
2022-11-09T14:32:36.182Z,45.30
2022-11-09T14:35:28.673Z,38.10
2022-11-09T14:38:24.086Z,39.50
2022-11-09T14:41:23.473Z,33.70
2022-11-09T14:44:24.046Z,25.80
2022-11-09T14:47:20.943Z,31.90
2022-11-09T14:50:16.029Z,27.60
2022-11-09T14:53:05.357Z,31.30
2022-11-09T14:55:55.982Z,36.60
2022-11-09T14:58:45.020Z,56.00
2022-11-09T15:01:33.031Z,41.00
2022-11-09T15:04:23.619Z,44.70
2022-11-09T15:07:19.859Z,40.00
2022-11-09T15:10:19.254Z,34.30
2022-11-09T15:13:08.869Z,53.90
2022-11-09T15:15:56.190Z,72.80
2022-11-09T15:18:47.081Z,78.40
2022-11-09T15:21:38.309Z,30.20
2022-11-09T15:24:28.941Z,34.10
2022-11-09T15:27:35.399Z,35.60
2022-11-09T15:30:29.575Z,35.60
2022-11-09T15:33:24.669Z,37.00
2022-11-09T15:36:35.939Z,40.80
2022-11-09T15:39:24.734Z,40.90
2022-11-09T15:42:13.436Z,43.10
2022-11-09T15:45:01.087Z,33.30
2022-11-09T15:47:56.500Z,42.70
2022-11-09T15:50:43.979Z,39.00
2022-11-09T15:53:31.628Z,44.00
2022-11-09T15:56:23.848Z,44.70
2022-11-09T15:59:18.683Z,41.70
2022-11-09T16:02:06.843Z,37.40
2022-11-09T16:04:54.223Z,47.60
2022-11-09T16:07:53.163Z,39.00
2022-11-09T16:10:42.130Z,40.10
2022-11-09T16:13:30.142Z,42.20
2022-11-09T16:16:17.570Z,43.40
2022-11-09T16:19:05.308Z,43.80
2022-11-09T16:21:55.854Z,41.90
2022-11-09T16:24:43.771Z,40.60
2022-11-09T16:27:49.778Z,42.40
2022-11-09T16:30:45.507Z,40.30
2022-11-09T16:33:34.874Z,37.80
2022-11-09T16:36:25.797Z,34.90
2022-11-09T16:39:17.421Z,37.20
2022-11-09T16:42:10.640Z,35.70
2022-11-09T16:45:05.815Z,39.50
2022-11-09T16:47:57.450Z,42.50
2022-11-09T16:50:45.630Z,40.00
2022-11-09T16:53:33.281Z,39.20
2022-11-09T16:56:20.904Z,45.90
2022-11-09T16:59:08.530Z,46.00
2022-11-09T17:01:59.185Z,50.90
2022-11-09T17:07:42.595Z,43.30
2022-11-09T17:10:31.313Z,42.00
2022-11-09T17:13:20.205Z,59.10
2022-11-09T17:16:12.784Z,58.30
2022-11-09T17:19:00.851Z,66.50
2022-11-09T17:21:48.772Z,78.90
2022-11-09T17:24:38.045Z,56.80
2022-11-09T17:27:25.453Z,42.20
2022-11-09T17:30:13.428Z,40.00
2022-11-09T17:33:01.069Z,42.00
2022-11-09T17:35:49.499Z,56.00
2022-11-09T17:38:37.739Z,44.00
2022-11-09T17:41:26.248Z,59.50
2022-11-09T17:44:13.875Z,32.80
2022-11-09T17:47:02.460Z,33.50
2022-11-09T17:49:49.768Z,37.00
2022-11-09T17:52:37.870Z,40.40
2022-11-09T17:55:25.640Z,39.70
2022-11-09T17:58:13.669Z,38.10
2022-11-09T18:01:14.796Z,41.60
2022-11-09T18:04:26.552Z,38.30
2022-11-09T18:07:33.728Z,34.20
2022-11-09T18:10:51.949Z,35.20
2022-11-09T18:14:01.300Z,34.80
2022-11-09T18:17:17.803Z,46.00
2022-11-09T18:20:37.980Z,39.70
2022-11-09T18:24:05.544Z,37.30
2022-11-09T18:27:05.763Z,33.70
2022-11-09T18:30:25.153Z,35.80
2022-11-09T18:33:34.989Z,33.30
2022-11-09T18:36:53.669Z,41.70
2022-11-09T18:40:21.716Z,35.10
2022-11-09T18:43:29.142Z,36.90
2022-11-09T18:46:17.807Z,32.10
2022-11-09T18:49:10.172Z,34.60
2022-11-09T18:52:01.196Z,32.30
2022-11-09T18:54:48.969Z,31.70
2022-11-09T18:57:37.244Z,31.20
2022-11-09T19:00:24.648Z,30.30
2022-11-09T19:03:16.413Z,33.10
2022-11-09T19:06:16.163Z,34.50
2022-11-09T19:09:23.155Z,45.00
2022-11-09T19:12:11.680Z,44.60
2022-11-09T19:15:00.670Z,34.00
2022-11-09T19:17:47.700Z,29.60
2022-11-09T19:20:38.737Z,27.50
2022-11-09T19:23:33.912Z,30.20
2022-11-09T19:26:23.059Z,30.70
2022-11-09T19:29:12.635Z,31.40
2022-11-09T19:32:00.528Z,47.80
2022-11-09T19:34:48.319Z,45.70
2022-11-09T19:37:36.421Z,41.00
2022-11-09T19:40:24.322Z,40.10
2022-11-09T19:43:12.221Z,39.00
2022-11-09T19:46:00.105Z,35.00
2022-11-09T19:48:48.507Z,38.40
2022-11-09T19:51:37.335Z,35.10
2022-11-09T19:54:26.577Z,34.20
2022-11-09T19:57:13.864Z,36.60
2022-11-09T20:00:02.042Z,32.30
2022-11-09T20:02:49.875Z,31.20
2022-11-09T20:05:37.783Z,32.00
2022-11-09T20:08:25.973Z,36.80
2022-11-09T20:11:36.419Z,33.80
2022-11-09T20:14:23.951Z,35.20
2022-11-09T20:17:11.858Z,33.10
2022-11-09T20:19:59.787Z,30.00
2022-11-09T20:22:48.363Z,28.70
2022-11-09T20:25:35.840Z,27.20
2022-11-09T20:28:23.972Z,25.00
2022-11-09T20:31:14.856Z,29.10
2022-11-09T20:34:03.970Z,28.70
2022-11-09T20:36:52.413Z,28.90
2022-11-09T20:39:41.792Z,28.90
2022-11-09T20:42:29.696Z,30.60
2022-11-09T20:45:17.768Z,25.70
2022-11-09T20:48:19.421Z,25.70
2022-11-09T20:51:18.084Z,25.30
2022-11-09T20:54:07.788Z,26.30
2022-11-09T20:56:56.165Z,28.70
2022-11-09T20:59:43.435Z,28.40
2022-11-09T21:02:31.674Z,32.50
2022-11-09T21:05:19.402Z,31.10
2022-11-09T21:08:07.332Z,28.80
2022-11-09T21:10:55.185Z,28.80
2022-11-09T21:13:44.445Z,27.10
2022-11-09T21:16:31.812Z,29.40
2022-11-09T21:19:19.395Z,29.10
2022-11-09T21:22:07.029Z,30.90
2022-11-09T21:25:13.170Z,29.80
2022-11-09T21:28:19.704Z,29.10
2022-11-09T21:31:07.592Z,28.10
2022-11-09T21:33:55.686Z,25.60
2022-11-09T21:36:44.366Z,25.30
2022-11-09T21:39:32.701Z,26.70
2022-11-09T21:42:20.498Z,30.90
2022-11-09T21:45:08.835Z,28.80
2022-11-09T21:47:56.455Z,28.90
2022-11-09T21:50:43.813Z,31.10
2022-11-09T21:53:33.044Z,29.00
2022-11-09T21:56:20.690Z,28.20
2022-11-09T21:59:08.680Z,31.40
2022-11-09T22:01:56.484Z,32.70
2022-11-09T22:04:43.822Z,33.90
2022-11-09T22:07:31.296Z,30.50
2022-11-09T22:10:19.266Z,30.40
2022-11-09T22:13:25.746Z,28.30
2022-11-09T22:16:13.350Z,29.20
2022-11-09T22:19:23.230Z,27.70
2022-11-09T22:22:11.155Z,29.30
2022-11-09T22:24:59.316Z,31.30
2022-11-09T22:27:46.950Z,29.80
2022-11-09T22:30:35.387Z,29.80
2022-11-09T22:33:27.086Z,29.80
2022-11-09T22:36:15.773Z,30.60
2022-11-09T22:39:02.766Z,27.60
2022-11-09T22:41:51.053Z,29.10
2022-11-09T22:44:38.252Z,31.30
2022-11-09T22:47:25.644Z,32.70
2022-11-09T22:50:13.292Z,30.90
2022-11-09T22:53:03.970Z,28.70
2022-11-09T22:55:56.581Z,28.40
2022-11-09T22:58:48.011Z,28.50
2022-11-09T23:01:35.429Z,30.90
2022-11-09T23:04:23.436Z,31.20
2022-11-09T23:07:10.707Z,32.30
2022-11-09T23:09:59.116Z,30.20
2022-11-09T23:12:46.253Z,31.00
2022-11-09T23:15:34.241Z,28.90
2022-11-09T23:18:40.514Z,29.20
2022-11-09T23:21:36.805Z,26.60
2022-11-09T23:24:42.677Z,28.80
2022-11-09T23:27:31.520Z,27.80
2022-11-09T23:30:19.610Z,28.80
2022-11-09T23:33:07.836Z,27.10
2022-11-09T23:35:56.467Z,27.10
2022-11-09T23:38:44.164Z,25.00
2022-11-09T23:41:31.535Z,26.70
2022-11-09T23:44:19.156Z,26.30
2022-11-09T23:47:06.751Z,26.90
2022-11-09T23:49:54.440Z,26.30
2022-11-09T23:52:41.796Z,26.10
2022-11-09T23:55:31.283Z,27.10
2022-11-09T23:58:18.910Z,25.40
